sensor_id;sensor_type;location;lat;lon;timestamp;P1;durP1;ratioP1;P2;durP2;ratioP2
23596;SDS011;40226;50.874;4.394;2023-12-14T00:01:13;4.43;;;3.95;;
23596;SDS011;40226;50.874;4.394;2023-12-14T00:03:39;1.27;;;1.27;;
23596;SDS011;40226;50.874;4.394;2023-12-14T00:06:12;3.17;;;2.97;;
23596;SDS011;40226;50.874;4.394;2023-12-14T00:08:38;2.15;;;2.05;;
23596;SDS011;40226;50.874;4.394;2023-12-14T00:11:04;3.35;;;3.15;;
23596;SDS011;40226;50.874;4.394;2023-12-14T00:13:31;2.35;;;2.25;;
23596;SDS011;40226;50.874;4.394;2023-12-14T00:15:57;1.20;;;1.20;;
23596;SDS011;40226;50.874;4.394;2023-12-14T00:18:23;1.75;;;1.65;;
23596;SDS011;40226;50.874;4.394;2023-12-14T00:20:49;3.90;;;2.65;;
23596;SDS011;40226;50.874;4.394;2023-12-14T00:23:14;5.43;;;2.55;;
23596;SDS011;40226;50.874;4.394;2023-12-14T00:25:40;2.83;;;2.58;;
23596;SDS011;40226;50.874;4.394;2023-12-14T00:28:06;2.28;;;2.15;;
23596;SDS011;40226;50.874;4.394;2023-12-14T00:30:31;4.47;;;2.50;;
23596;SDS011;40226;50.874;4.394;2023-12-14T00:32:57;1.20;;;1.15;;
23596;SDS011;40226;50.874;4.394;2023-12-14T00:35:22;1.70;;;1.30;;
23596;SDS011;40226;50.874;4.394;2023-12-14T00:37:48;1.67;;;1.58;;
23596;SDS011;40226;50.874;4.394;2023-12-14T00:40:14;3.38;;;2.60;;
23596;SDS011;40226;50.874;4.394;2023-12-14T00:42:39;2.20;;;2.00;;
23596;SDS011;40226;50.874;4.394;2023-12-14T00:45:05;6.57;;;2.28;;
23596;SDS011;40226;50.874;4.394;2023-12-14T00:47:31;7.47;;;3.80;;
23596;SDS011;40226;50.874;4.394;2023-12-14T00:49:57;3.38;;;3.13;;
23596;SDS011;40226;50.874;4.394;2023-12-14T00:52:23;2.25;;;1.80;;
23596;SDS011;40226;50.874;4.394;2023-12-14T00:54:48;1.65;;;1.25;;
23596;SDS011;40226;50.874;4.394;2023-12-14T00:57:14;10.43;;;2.72;;
23596;SDS011;40226;50.874;4.394;2023-12-14T00:59:39;3.35;;;3.03;;
23596;SDS011;40226;50.874;4.394;2023-12-14T01:02:05;1.33;;;1.23;;
23596;SDS011;40226;50.874;4.394;2023-12-14T01:04:31;2.83;;;1.77;;
23596;SDS011;40226;50.874;4.394;2023-12-14T01:06:57;3.00;;;2.72;;
23596;SDS011;40226;50.874;4.394;2023-12-14T01:09:23;1.77;;;1.67;;
23596;SDS011;40226;50.874;4.394;2023-12-14T01:11:48;3.05;;;2.83;;
23596;SDS011;40226;50.874;4.394;2023-12-14T01:14:14;2.30;;;1.77;;
23596;SDS011;40226;50.874;4.394;2023-12-14T01:16:40;2.00;;;1.90;;
23596;SDS011;40226;50.874;4.394;2023-12-14T01:19:05;7.22;;;4.03;;
23596;SDS011;40226;50.874;4.394;2023-12-14T01:21:32;2.78;;;2.10;;
23596;SDS011;40226;50.874;4.394;2023-12-14T01:23:57;1.65;;;1.55;;
23596;SDS011;40226;50.874;4.394;2023-12-14T01:26:23;3.67;;;2.33;;
23596;SDS011;40226;50.874;4.394;2023-12-14T01:28:48;1.70;;;1.60;;
23596;SDS011;40226;50.874;4.394;2023-12-14T01:31:14;3.60;;;1.98;;
23596;SDS011;40226;50.874;4.394;2023-12-14T01:33:40;2.92;;;2.72;;
23596;SDS011;40226;50.874;4.394;2023-12-14T01:36:06;4.32;;;2.42;;
23596;SDS011;40226;50.874;4.394;2023-12-14T01:38:32;3.53;;;2.42;;
23596;SDS011;40226;50.874;4.394;2023-12-14T01:40:57;2.65;;;2.45;;
23596;SDS011;40226;50.874;4.394;2023-12-14T01:43:24;4.47;;;3.22;;
23596;SDS011;40226;50.874;4.394;2023-12-14T01:45:50;4.22;;;2.58;;
23596;SDS011;40226;50.874;4.394;2023-12-14T01:48:15;4.40;;;2.58;;
23596;SDS011;40226;50.874;4.394;2023-12-14T01:50:41;2.15;;;2.05;;
23596;SDS011;40226;50.874;4.394;2023-12-14T01:53:06;1.83;;;1.73;;
23596;SDS011;40226;50.874;4.394;2023-12-14T01:55:32;4.28;;;2.60;;
23596;SDS011;40226;50.874;4.394;2023-12-14T01:57:58;1.92;;;1.83;;
23596;SDS011;40226;50.874;4.394;2023-12-14T02:03:02;6.63;;;3.13;;
23596;SDS011;40226;50.874;4.394;2023-12-14T02:05:27;2.55;;;2.35;;
23596;SDS011;40226;50.874;4.394;2023-12-14T02:07:53;3.55;;;2.33;;
23596;SDS011;40226;50.874;4.394;2023-12-14T02:10:18;11.73;;;3.60;;
23596;SDS011;40226;50.874;4.394;2023-12-14T02:12:44;1.67;;;1.58;;
23596;SDS011;40226;50.874;4.394;2023-12-14T02:15:10;2.17;;;2.03;;
23596;SDS011;40226;50.874;4.394;2023-12-14T02:17:35;2.25;;;1.65;;
23596;SDS011;40226;50.874;4.394;2023-12-14T02:20:01;2.25;;;2.15;;
23596;SDS011;40226;50.874;4.394;2023-12-14T02:22:26;1.35;;;1.25;;
23596;SDS011;40226;50.874;4.394;2023-12-14T02:24:52;1.08;;;1.08;;
23596;SDS011;40226;50.874;4.394;2023-12-14T02:27:18;4.22;;;2.75;;
23596;SDS011;40226;50.874;4.394;2023-12-14T02:29:43;0.65;;;0.65;;
23596;SDS011;40226;50.874;4.394;2023-12-14T02:32:09;1.90;;;1.80;;
23596;SDS011;40226;50.874;4.394;2023-12-14T02:34:34;3.05;;;2.53;;
23596;SDS011;40226;50.874;4.394;2023-12-14T02:37:00;1.15;;;1.10;;
23596;SDS011;40226;50.874;4.394;2023-12-14T02:39:25;3.72;;;3.53;;
23596;SDS011;40226;50.874;4.394;2023-12-14T02:41:51;2.17;;;2.08;;
23596;SDS011;40226;50.874;4.394;2023-12-14T02:44:17;3.30;;;2.95;;
23596;SDS011;40226;50.874;4.394;2023-12-14T02:46:42;5.05;;;3.60;;
23596;SDS011;40226;50.874;4.394;2023-12-14T02:49:08;3.80;;;2.45;;
23596;SDS011;40226;50.874;4.394;2023-12-14T02:51:33;1.80;;;1.67;;
23596;SDS011;40226;50.874;4.394;2023-12-14T02:53:59;3.55;;;3.25;;
23596;SDS011;40226;50.874;4.394;2023-12-14T02:56:25;2.78;;;2.40;;
23596;SDS011;40226;50.874;4.394;2023-12-14T02:58:50;3.30;;;3.05;;
23596;SDS011;40226;50.874;4.394;2023-12-14T03:01:19;4.68;;;2.47;;
23596;SDS011;40226;50.874;4.394;2023-12-14T03:03:46;3.15;;;2.95;;
23596;SDS011;40226;50.874;4.394;2023-12-14T03:06:12;2.22;;;2.08;;
23596;SDS011;40226;50.874;4.394;2023-12-14T03:08:37;1.88;;;1.63;;
23596;SDS011;40226;50.874;4.394;2023-12-14T03:11:03;5.85;;;3.55;;
23596;SDS011;40226;50.874;4.394;2023-12-14T03:13:29;4.53;;;2.50;;
23596;SDS011;40226;50.874;4.394;2023-12-14T03:15:54;1.38;;;1.27;;
23596;SDS011;40226;50.874;4.394;2023-12-14T03:18:20;2.25;;;2.13;;
23596;SDS011;40226;50.874;4.394;2023-12-14T03:20:45;2.20;;;2.08;;
23596;SDS011;40226;50.874;4.394;2023-12-14T03:23:11;5.22;;;3.78;;
23596;SDS011;40226;50.874;4.394;2023-12-14T03:25:37;4.00;;;2.42;;
23596;SDS011;40226;50.874;4.394;2023-12-14T03:28:02;2.00;;;1.90;;
23596;SDS011;40226;50.874;4.394;2023-12-14T03:30:28;4.18;;;3.88;;
23596;SDS011;40226;50.874;4.394;2023-12-14T03:32:54;1.95;;;1.85;;
23596;SDS011;40226;50.874;4.394;2023-12-14T03:35:20;2.15;;;2.05;;
23596;SDS011;40226;50.874;4.394;2023-12-14T03:37:47;2.55;;;2.35;;
23596;SDS011;40226;50.874;4.394;2023-12-14T03:40:12;4.05;;;2.50;;
23596;SDS011;40226;50.874;4.394;2023-12-14T03:42:38;2.67;;;2.47;;
23596;SDS011;40226;50.874;4.394;2023-12-14T03:45:04;1.80;;;1.70;;
23596;SDS011;40226;50.874;4.394;2023-12-14T03:47:30;1.42;;;1.33;;
23596;SDS011;40226;50.874;4.394;2023-12-14T03:49:55;6.03;;;3.40;;
23596;SDS011;40226;50.874;4.394;2023-12-14T03:52:21;1.85;;;1.75;;
23596;SDS011;40226;50.874;4.394;2023-12-14T03:54:47;1.20;;;1.17;;
23596;SDS011;40226;50.874;4.394;2023-12-14T03:57:12;75.07;;;29.98;;
23596;SDS011;40226;50.874;4.394;2023-12-14T03:59:38;69.20;;;27.77;;
23596;SDS011;40226;50.874;4.394;2023-12-14T04:02:05;70.35;;;27.67;;
23596;SDS011;40226;50.874;4.394;2023-12-14T04:04:31;65.53;;;27.10;;
23596;SDS011;40226;50.874;4.394;2023-12-14T04:06:56;64.03;;;27.02;;
23596;SDS011;40226;50.874;4.394;2023-12-14T04:09:22;63.28;;;25.45;;
23596;SDS011;40226;50.874;4.394;2023-12-14T04:11:48;63.92;;;26.80;;
23596;SDS011;40226;50.874;4.394;2023-12-14T04:14:14;61.33;;;26.02;;
23596;SDS011;40226;50.874;4.394;2023-12-14T04:16:40;61.05;;;27.17;;
23596;SDS011;40226;50.874;4.394;2023-12-14T04:19:05;66.00;;;26.05;;
23596;SDS011;40226;50.874;4.394;2023-12-14T04:21:35;65.72;;;29.27;;
23596;SDS011;40226;50.874;4.394;2023-12-14T04:24:01;70.38;;;27.85;;
23596;SDS011;40226;50.874;4.394;2023-12-14T04:26:26;65.80;;;27.90;;
23596;SDS011;40226;50.874;4.394;2023-12-14T04:28:53;69.85;;;29.23;;
23596;SDS011;40226;50.874;4.394;2023-12-14T04:31:18;62.13;;;27.33;;
23596;SDS011;40226;50.874;4.394;2023-12-14T04:33:44;60.45;;;27.10;;
23596;SDS011;40226;50.874;4.394;2023-12-14T04:36:09;63.78;;;27.27;;
23596;SDS011;40226;50.874;4.394;2023-12-14T04:38:35;56.22;;;27.52;;
23596;SDS011;40226;50.874;4.394;2023-12-14T04:41:01;57.60;;;26.60;;
23596;SDS011;40226;50.874;4.394;2023-12-14T04:43:26;54.47;;;26.50;;
23596;SDS011;40226;50.874;4.394;2023-12-14T04:45:54;60.72;;;27.05;;
23596;SDS011;40226;50.874;4.394;2023-12-14T04:48:20;58.05;;;27.35;;
23596;SDS011;40226;50.874;4.394;2023-12-14T04:50:46;61.80;;;28.77;;
23596;SDS011;40226;50.874;4.394;2023-12-14T04:53:11;62.08;;;28.33;;
23596;SDS011;40226;50.874;4.394;2023-12-14T04:55:37;61.17;;;27.08;;
23596;SDS011;40226;50.874;4.394;2023-12-14T04:58:03;60.58;;;29.02;;
23596;SDS011;40226;50.874;4.394;2023-12-14T05:00:28;62.40;;;28.73;;
23596;SDS011;40226;50.874;4.394;2023-12-14T05:02:54;62.33;;;28.80;;
23596;SDS011;40226;50.874;4.394;2023-12-14T05:05:19;57.47;;;28.95;;
23596;SDS011;40226;50.874;4.394;2023-12-14T05:07:45;58.92;;;29.00;;
23596;SDS011;40226;50.874;4.394;2023-12-14T05:10:10;58.80;;;29.23;;
23596;SDS011;40226;50.874;4.394;2023-12-14T05:12:36;60.13;;;28.73;;
23596;SDS011;40226;50.874;4.394;2023-12-14T05:15:03;63.28;;;30.42;;
23596;SDS011;40226;50.874;4.394;2023-12-14T05:17:32;60.30;;;29.45;;
23596;SDS011;40226;50.874;4.394;2023-12-14T05:19:58;61.83;;;29.67;;
23596;SDS011;40226;50.874;4.394;2023-12-14T05:22:24;62.22;;;30.65;;
23596;SDS011;40226;50.874;4.394;2023-12-14T05:24:49;59.20;;;29.25;;
23596;SDS011;40226;50.874;4.394;2023-12-14T05:27:15;59.15;;;28.88;;
23596;SDS011;40226;50.874;4.394;2023-12-14T05:29:41;55.92;;;27.30;;
23596;SDS011;40226;50.874;4.394;2023-12-14T05:32:06;53.85;;;27.48;;
23596;SDS011;40226;50.874;4.394;2023-12-14T05:34:32;54.90;;;27.83;;
23596;SDS011;40226;50.874;4.394;2023-12-14T05:36:57;51.90;;;27.70;;
23596;SDS011;40226;50.874;4.394;2023-12-14T05:39:23;55.05;;;27.85;;
23596;SDS011;40226;50.874;4.394;2023-12-14T05:41:48;56.08;;;27.83;;
23596;SDS011;40226;50.874;4.394;2023-12-14T05:44:15;55.55;;;26.15;;
23596;SDS011;40226;50.874;4.394;2023-12-14T05:46:40;52.03;;;26.92;;
23596;SDS011;40226;50.874;4.394;2023-12-14T05:49:06;49.00;;;26.67;;
23596;SDS011;40226;50.874;4.394;2023-12-14T05:51:32;53.65;;;27.48;;
23596;SDS011;40226;50.874;4.394;2023-12-14T05:53:58;50.45;;;27.13;;
23596;SDS011;40226;50.874;4.394;2023-12-14T05:56:27;51.80;;;26.77;;
23596;SDS011;40226;50.874;4.394;2023-12-14T05:58:53;55.08;;;28.10;;
23596;SDS011;40226;50.874;4.394;2023-12-14T06:01:19;53.85;;;27.70;;
23596;SDS011;40226;50.874;4.394;2023-12-14T06:03:45;53.50;;;27.85;;
23596;SDS011;40226;50.874;4.394;2023-12-14T06:06:11;52.47;;;26.33;;
23596;SDS011;40226;50.874;4.394;2023-12-14T06:08:38;49.63;;;26.67;;
23596;SDS011;40226;50.874;4.394;2023-12-14T06:11:04;52.83;;;25.92;;
23596;SDS011;40226;50.874;4.394;2023-12-14T06:13:31;55.58;;;27.10;;
23596;SDS011;40226;50.874;4.394;2023-12-14T06:15:57;52.13;;;26.20;;
23596;SDS011;40226;50.874;4.394;2023-12-14T06:18:22;53.28;;;28.35;;
23596;SDS011;40226;50.874;4.394;2023-12-14T06:20:48;57.22;;;27.80;;
23596;SDS011;40226;50.874;4.394;2023-12-14T06:23:14;53.17;;;26.38;;
23596;SDS011;40226;50.874;4.394;2023-12-14T06:25:39;50.78;;;26.90;;
23596;SDS011;40226;50.874;4.394;2023-12-14T06:28:05;51.70;;;26.35;;
23596;SDS011;40226;50.874;4.394;2023-12-14T06:30:30;57.33;;;27.35;;
23596;SDS011;40226;50.874;4.394;2023-12-14T06:32:56;50.40;;;26.10;;
23596;SDS011;40226;50.874;4.394;2023-12-14T06:35:22;52.97;;;26.63;;
23596;SDS011;40226;50.874;4.394;2023-12-14T06:37:47;54.53;;;26.38;;
23596;SDS011;40226;50.874;4.394;2023-12-14T06:40:13;51.05;;;26.10;;
23596;SDS011;40226;50.874;4.394;2023-12-14T06:42:39;51.42;;;26.40;;
23596;SDS011;40226;50.874;4.394;2023-12-14T06:45:05;53.17;;;26.35;;
23596;SDS011;40226;50.874;4.394;2023-12-14T06:47:31;56.58;;;27.27;;
23596;SDS011;40226;50.874;4.394;2023-12-14T06:49:56;55.03;;;25.65;;
23596;SDS011;40226;50.874;4.394;2023-12-14T06:52:22;51.45;;;26.65;;
23596;SDS011;40226;50.874;4.394;2023-12-14T06:54:48;53.53;;;26.70;;
23596;SDS011;40226;50.874;4.394;2023-12-14T06:57:14;53.50;;;24.63;;
23596;SDS011;40226;50.874;4.394;2023-12-14T06:59:39;50.95;;;25.60;;
23596;SDS011;40226;50.874;4.394;2023-12-14T07:02:05;49.72;;;25.83;;
23596;SDS011;40226;50.874;4.394;2023-12-14T07:04:32;46.60;;;24.63;;
23596;SDS011;40226;50.874;4.394;2023-12-14T07:06:57;45.63;;;24.08;;
23596;SDS011;40226;50.874;4.394;2023-12-14T07:09:23;48.85;;;23.33;;
23596;SDS011;40226;50.874;4.394;2023-12-14T07:11:49;43.40;;;22.60;;
23596;SDS011;40226;50.874;4.394;2023-12-14T07:14:15;48.53;;;23.20;;
23596;SDS011;40226;50.874;4.394;2023-12-14T07:16:41;40.38;;;21.02;;
23596;SDS011;40226;50.874;4.394;2023-12-14T07:19:07;44.20;;;22.50;;
23596;SDS011;40226;50.874;4.394;2023-12-14T07:21:32;44.88;;;21.63;;
23596;SDS011;40226;50.874;4.394;2023-12-14T07:23:58;40.30;;;20.25;;
23596;SDS011;40226;50.874;4.394;2023-12-14T07:26:24;40.17;;;20.60;;
23596;SDS011;40226;50.874;4.394;2023-12-14T07:28:49;39.38;;;21.17;;
23596;SDS011;40226;50.874;4.394;2023-12-14T07:31:18;40.30;;;20.55;;
23596;SDS011;40226;50.874;4.394;2023-12-14T07:33:43;42.20;;;21.25;;
23596;SDS011;40226;50.874;4.394;2023-12-14T07:36:10;41.88;;;21.23;;
23596;SDS011;40226;50.874;4.394;2023-12-14T07:38:35;40.58;;;20.52;;
23596;SDS011;40226;50.874;4.394;2023-12-14T07:41:01;43.10;;;20.15;;
23596;SDS011;40226;50.874;4.394;2023-12-14T07:43:28;41.13;;;19.95;;
23596;SDS011;40226;50.874;4.394;2023-12-14T07:45:53;38.50;;;19.83;;
23596;SDS011;40226;50.874;4.394;2023-12-14T07:48:19;43.35;;;20.08;;
23596;SDS011;40226;50.874;4.394;2023-12-14T07:50:45;42.25;;;21.30;;
23596;SDS011;40226;50.874;4.394;2023-12-14T07:53:11;40.83;;;20.02;;
23596;SDS011;40226;50.874;4.394;2023-12-14T07:55:37;42.33;;;19.55;;
23596;SDS011;40226;50.874;4.394;2023-12-14T07:58:02;38.72;;;19.90;;
23596;SDS011;40226;50.874;4.394;2023-12-14T08:00:28;37.40;;;18.95;;
23596;SDS011;40226;50.874;4.394;2023-12-14T08:02:53;35.35;;;20.75;;
23596;SDS011;40226;50.874;4.394;2023-12-14T08:05:19;34.67;;;18.90;;
23596;SDS011;40226;50.874;4.394;2023-12-14T08:07:45;33.72;;;18.17;;
23596;SDS011;40226;50.874;4.394;2023-12-14T08:10:11;33.13;;;17.25;;
23596;SDS011;40226;50.874;4.394;2023-12-14T08:12:36;37.60;;;17.27;;
23596;SDS011;40226;50.874;4.394;2023-12-14T08:15:02;36.83;;;17.42;;
23596;SDS011;40226;50.874;4.394;2023-12-14T08:17:28;35.90;;;17.05;;
23596;SDS011;40226;50.874;4.394;2023-12-14T08:19:54;32.20;;;17.38;;
23596;SDS011;40226;50.874;4.394;2023-12-14T08:22:19;32.72;;;17.05;;
23596;SDS011;40226;50.874;4.394;2023-12-14T08:24:47;29.00;;;16.45;;
23596;SDS011;40226;50.874;4.394;2023-12-14T08:27:13;32.80;;;15.35;;
23596;SDS011;40226;50.874;4.394;2023-12-14T08:29:38;33.92;;;17.17;;
23596;SDS011;40226;50.874;4.394;2023-12-14T08:32:04;28.10;;;14.98;;
23596;SDS011;40226;50.874;4.394;2023-12-14T08:34:30;27.17;;;15.70;;
23596;SDS011;40226;50.874;4.394;2023-12-14T08:36:56;25.92;;;13.95;;
23596;SDS011;40226;50.874;4.394;2023-12-14T08:39:21;27.70;;;13.32;;
23596;SDS011;40226;50.874;4.394;2023-12-14T08:41:47;26.25;;;13.27;;
23596;SDS011;40226;50.874;4.394;2023-12-14T08:44:14;28.95;;;14.25;;
23596;SDS011;40226;50.874;4.394;2023-12-14T08:46:44;27.33;;;14.23;;
23596;SDS011;40226;50.874;4.394;2023-12-14T08:49:11;32.47;;;14.32;;
23596;SDS011;40226;50.874;4.394;2023-12-14T08:51:38;26.88;;;14.25;;
23596;SDS011;40226;50.874;4.394;2023-12-14T08:54:04;29.90;;;15.48;;
23596;SDS011;40226;50.874;4.394;2023-12-14T08:56:30;31.73;;;15.05;;
23596;SDS011;40226;50.874;4.394;2023-12-14T08:58:56;29.35;;;14.38;;
23596;SDS011;40226;50.874;4.394;2023-12-14T09:01:22;31.00;;;14.45;;
23596;SDS011;40226;50.874;4.394;2023-12-14T09:03:48;32.20;;;15.00;;
23596;SDS011;40226;50.874;4.394;2023-12-14T09:06:15;25.15;;;13.02;;
23596;SDS011;40226;50.874;4.394;2023-12-14T09:08:42;27.52;;;13.32;;
23596;SDS011;40226;50.874;4.394;2023-12-14T09:11:08;22.55;;;12.32;;
23596;SDS011;40226;50.874;4.394;2023-12-14T09:13:34;23.73;;;12.52;;
23596;SDS011;40226;50.874;4.394;2023-12-14T09:16:00;26.38;;;13.80;;
23596;SDS011;40226;50.874;4.394;2023-12-14T09:18:29;27.55;;;12.43;;
23596;SDS011;40226;50.874;4.394;2023-12-14T09:20:58;22.83;;;13.10;;
23596;SDS011;40226;50.874;4.394;2023-12-14T09:23:25;28.65;;;12.95;;
23596;SDS011;40226;50.874;4.394;2023-12-14T09:25:51;24.10;;;12.38;;
23596;SDS011;40226;50.874;4.394;2023-12-14T09:28:21;24.25;;;12.65;;
23596;SDS011;40226;50.874;4.394;2023-12-14T09:30:48;21.25;;;13.13;;
23596;SDS011;40226;50.874;4.394;2023-12-14T09:33:14;28.00;;;11.98;;
23596;SDS011;40226;50.874;4.394;2023-12-14T09:35:40;25.92;;;11.88;;
23596;SDS011;40226;50.874;4.394;2023-12-14T09:38:07;28.15;;;11.85;;
23596;SDS011;40226;50.874;4.394;2023-12-14T09:40:34;27.83;;;11.48;;
23596;SDS011;40226;50.874;4.394;2023-12-14T09:43:00;26.08;;;11.40;;
23596;SDS011;40226;50.874;4.394;2023-12-14T09:45:27;21.67;;;11.43;;
23596;SDS011;40226;50.874;4.394;2023-12-14T09:47:59;23.38;;;11.07;;
23596;SDS011;40226;50.874;4.394;2023-12-14T09:50:26;22.63;;;10.88;;
23596;SDS011;40226;50.874;4.394;2023-12-14T09:52:53;20.25;;;10.02;;
23596;SDS011;40226;50.874;4.394;2023-12-14T09:55:19;16.40;;;9.80;;
23596;SDS011;40226;50.874;4.394;2023-12-14T09:57:46;17.70;;;8.93;;
23596;SDS011;40226;50.874;4.394;2023-12-14T10:00:12;25.15;;;10.02;;
23596;SDS011;40226;50.874;4.394;2023-12-14T10:02:57;18.50;;;10.05;;
23596;SDS011;40226;50.874;4.394;2023-12-14T10:05:42;20.08;;;9.75;;
23596;SDS011;40226;50.874;4.394;2023-12-14T10:08:08;16.38;;;9.57;;
23596;SDS011;40226;50.874;4.394;2023-12-14T10:10:33;16.45;;;9.30;;
23596;SDS011;40226;50.874;4.394;2023-12-14T10:13:00;16.13;;;9.45;;
23596;SDS011;40226;50.874;4.394;2023-12-14T10:15:27;21.10;;;9.65;;
23596;SDS011;40226;50.874;4.394;2023-12-14T10:17:55;16.52;;;8.75;;
23596;SDS011;40226;50.874;4.394;2023-12-14T10:20:22;16.67;;;8.10;;
23596;SDS011;40226;50.874;4.394;2023-12-14T10:22:49;14.88;;;8.27;;
23596;SDS011;40226;50.874;4.394;2023-12-14T10:25:15;20.42;;;8.73;;
23596;SDS011;40226;50.874;4.394;2023-12-14T10:27:46;17.67;;;8.68;;
23596;SDS011;40226;50.874;4.394;2023-12-14T10:30:12;16.23;;;8.88;;
23596;SDS011;40226;50.874;4.394;2023-12-14T10:32:38;21.23;;;8.40;;
23596;SDS011;40226;50.874;4.394;2023-12-14T10:35:06;12.77;;;7.22;;
23596;SDS011;40226;50.874;4.394;2023-12-14T10:37:32;16.55;;;7.93;;
23596;SDS011;40226;50.874;4.394;2023-12-14T10:40:01;17.48;;;7.93;;
23596;SDS011;40226;50.874;4.394;2023-12-14T10:42:30;19.92;;;8.57;;
23596;SDS011;40226;50.874;4.394;2023-12-14T10:44:59;19.92;;;8.52;;
23596;SDS011;40226;50.874;4.394;2023-12-14T10:47:27;18.52;;;8.20;;
23596;SDS011;40226;50.874;4.394;2023-12-14T10:49:52;18.23;;;8.95;;
23596;SDS011;40226;50.874;4.394;2023-12-14T10:52:20;17.20;;;8.10;;
23596;SDS011;40226;50.874;4.394;2023-12-14T10:54:49;16.77;;;8.07;;
23596;SDS011;40226;50.874;4.394;2023-12-14T10:57:21;19.05;;;8.40;;
23596;SDS011;40226;50.874;4.394;2023-12-14T10:59:49;16.88;;;7.90;;
23596;SDS011;40226;50.874;4.394;2023-12-14T11:02:14;20.25;;;7.65;;
23596;SDS011;40226;50.874;4.394;2023-12-14T11:04:56;18.75;;;8.18;;
23596;SDS011;40226;50.874;4.394;2023-12-14T11:10:37;17.98;;;7.32;;
23596;SDS011;40226;50.874;4.394;2023-12-14T11:13:26;11.65;;;6.75;;
23596;SDS011;40226;50.874;4.394;2023-12-14T11:15:56;14.07;;;6.80;;
23596;SDS011;40226;50.874;4.394;2023-12-14T11:18:22;16.17;;;6.75;;
23596;SDS011;40226;50.874;4.394;2023-12-14T11:20:50;14.85;;;6.75;;
23596;SDS011;40226;50.874;4.394;2023-12-14T11:23:33;15.67;;;7.03;;
23596;SDS011;40226;50.874;4.394;2023-12-14T11:26:04;13.80;;;7.10;;
23596;SDS011;40226;50.874;4.394;2023-12-14T11:28:32;16.17;;;6.70;;
23596;SDS011;40226;50.874;4.394;2023-12-14T11:30:58;15.63;;;6.72;;
23596;SDS011;40226;50.874;4.394;2023-12-14T11:33:26;18.38;;;7.65;;
23596;SDS011;40226;50.874;4.394;2023-12-14T11:35:53;13.68;;;6.50;;
23596;SDS011;40226;50.874;4.394;2023-12-14T11:38:20;14.98;;;6.80;;
23596;SDS011;40226;50.874;4.394;2023-12-14T11:40:47;13.98;;;7.55;;
23596;SDS011;40226;50.874;4.394;2023-12-14T11:43:14;16.65;;;8.05;;
23596;SDS011;40226;50.874;4.394;2023-12-14T11:45:40;17.58;;;7.70;;
23596;SDS011;40226;50.874;4.394;2023-12-14T11:48:07;19.45;;;8.63;;
23596;SDS011;40226;50.874;4.394;2023-12-14T11:50:35;19.50;;;8.95;;
23596;SDS011;40226;50.874;4.394;2023-12-14T11:53:02;24.90;;;9.73;;
23596;SDS011;40226;50.874;4.394;2023-12-14T11:55:32;22.80;;;10.18;;
23596;SDS011;40226;50.874;4.394;2023-12-14T11:57:59;22.33;;;10.55;;
23596;SDS011;40226;50.874;4.394;2023-12-14T12:00:25;23.60;;;10.88;;
23596;SDS011;40226;50.874;4.394;2023-12-14T12:05:44;23.50;;;11.25;;
23596;SDS011;40226;50.874;4.394;2023-12-14T12:08:13;27.52;;;13.20;;
23596;SDS011;40226;50.874;4.394;2023-12-14T12:10:41;24.70;;;12.07;;
23596;SDS011;40226;50.874;4.394;2023-12-14T12:13:11;29.83;;;12.48;;
23596;SDS011;40226;50.874;4.394;2023-12-14T12:15:46;25.40;;;11.75;;
23596;SDS011;40226;50.874;4.394;2023-12-14T12:18:13;23.83;;;12.40;;
23596;SDS011;40226;50.874;4.394;2023-12-14T12:20:40;35.13;;;12.45;;
23596;SDS011;40226;50.874;4.394;2023-12-14T12:23:06;27.23;;;11.68;;
23596;SDS011;40226;50.874;4.394;2023-12-14T12:25:32;25.08;;;12.55;;
23596;SDS011;40226;50.874;4.394;2023-12-14T12:27:58;30.90;;;13.82;;
23596;SDS011;40226;50.874;4.394;2023-12-14T12:30:26;24.92;;;11.65;;
23596;SDS011;40226;50.874;4.394;2023-12-14T12:32:52;27.15;;;13.25;;
23596;SDS011;40226;50.874;4.394;2023-12-14T12:35:18;26.27;;;12.65;;
23596;SDS011;40226;50.874;4.394;2023-12-14T12:37:44;23.58;;;12.40;;
23596;SDS011;40226;50.874;4.394;2023-12-14T12:40:10;27.42;;;12.80;;
23596;SDS011;40226;50.874;4.394;2023-12-14T12:42:36;35.00;;;14.60;;
23596;SDS011;40226;50.874;4.394;2023-12-14T12:45:02;30.30;;;12.35;;
23596;SDS011;40226;50.874;4.394;2023-12-14T12:47:29;26.90;;;12.02;;
23596;SDS011;40226;50.874;4.394;2023-12-14T12:49:55;25.45;;;10.13;;
23596;SDS011;40226;50.874;4.394;2023-12-14T12:52:20;23.02;;;9.98;;
23596;SDS011;40226;50.874;4.394;2023-12-14T12:54:46;30.75;;;11.55;;
23596;SDS011;40226;50.874;4.394;2023-12-14T12:57:12;20.75;;;9.45;;
23596;SDS011;40226;50.874;4.394;2023-12-14T12:59:37;18.08;;;9.05;;
23596;SDS011;40226;50.874;4.394;2023-12-14T13:02:03;19.90;;;9.55;;
23596;SDS011;40226;50.874;4.394;2023-12-14T13:04:29;19.73;;;9.23;;
23596;SDS011;40226;50.874;4.394;2023-12-14T13:06:55;21.33;;;9.98;;
23596;SDS011;40226;50.874;4.394;2023-12-14T13:09:21;16.42;;;9.50;;
23596;SDS011;40226;50.874;4.394;2023-12-14T13:11:47;20.50;;;10.05;;
23596;SDS011;40226;50.874;4.394;2023-12-14T13:14:13;18.50;;;9.70;;
23596;SDS011;40226;50.874;4.394;2023-12-14T13:16:40;19.92;;;9.02;;
23596;SDS011;40226;50.874;4.394;2023-12-14T13:19:06;20.17;;;9.82;;
23596;SDS011;40226;50.874;4.394;2023-12-14T13:21:32;23.77;;;10.07;;
23596;SDS011;40226;50.874;4.394;2023-12-14T13:24:01;21.20;;;9.52;;
23596;SDS011;40226;50.874;4.394;2023-12-14T13:26:28;21.60;;;9.73;;
23596;SDS011;40226;50.874;4.394;2023-12-14T13:28:54;19.42;;;9.55;;
23596;SDS011;40226;50.874;4.394;2023-12-14T13:31:20;26.17;;;10.25;;
23596;SDS011;40226;50.874;4.394;2023-12-14T13:33:46;17.48;;;9.82;;
23596;SDS011;40226;50.874;4.394;2023-12-14T13:36:12;19.50;;;9.32;;
23596;SDS011;40226;50.874;4.394;2023-12-14T13:38:39;18.35;;;10.27;;
23596;SDS011;40226;50.874;4.394;2023-12-14T13:41:06;20.33;;;9.50;;
23596;SDS011;40226;50.874;4.394;2023-12-14T13:43:32;22.40;;;11.15;;
23596;SDS011;40226;50.874;4.394;2023-12-14T13:45:58;21.73;;;10.30;;
23596;SDS011;40226;50.874;4.394;2023-12-14T13:48:24;18.52;;;9.95;;
23596;SDS011;40226;50.874;4.394;2023-12-14T13:50:51;17.83;;;10.57;;
23596;SDS011;40226;50.874;4.394;2023-12-14T13:53:17;18.77;;;10.93;;
23596;SDS011;40226;50.874;4.394;2023-12-14T13:55:42;23.83;;;11.65;;
23596;SDS011;40226;50.874;4.394;2023-12-14T13:58:08;22.30;;;10.82;;
23596;SDS011;40226;50.874;4.394;2023-12-14T14:00:33;24.85;;;11.02;;
23596;SDS011;40226;50.874;4.394;2023-12-14T14:02:59;24.10;;;11.65;;
23596;SDS011;40226;50.874;4.394;2023-12-14T14:05:26;21.67;;;11.10;;
23596;SDS011;40226;50.874;4.394;2023-12-14T14:07:51;21.42;;;11.15;;
23596;SDS011;40226;50.874;4.394;2023-12-14T14:10:18;24.33;;;11.35;;
23596;SDS011;40226;50.874;4.394;2023-12-14T14:12:45;21.05;;;11.00;;
23596;SDS011;40226;50.874;4.394;2023-12-14T14:15:11;21.50;;;10.32;;
23596;SDS011;40226;50.874;4.394;2023-12-14T14:17:37;19.27;;;10.13;;
23596;SDS011;40226;50.874;4.394;2023-12-14T14:20:02;23.67;;;10.60;;
23596;SDS011;40226;50.874;4.394;2023-12-14T14:22:29;19.23;;;9.93;;
23596;SDS011;40226;50.874;4.394;2023-12-14T14:24:55;19.65;;;9.98;;
23596;SDS011;40226;50.874;4.394;2023-12-14T14:27:21;20.45;;;10.50;;
23596;SDS011;40226;50.874;4.394;2023-12-14T14:29:47;24.33;;;11.13;;
23596;SDS011;40226;50.874;4.394;2023-12-14T14:32:13;22.17;;;10.73;;
23596;SDS011;40226;50.874;4.394;2023-12-14T14:34:39;24.13;;;10.82;;